Orford, Canada
Current Conditions -  °F | °C
As of 3:00 AM on Saturday 29 Nov 2014 (Local Time) from CYSC Reporting Station
Overcast Overcast  
Wind Chill: 11°   Ceiling: 4100
Heat Index: 18°   Visibility: 9mi
Dew Point: 14°   Wind: 5mph
Humidity: 86%   Direction: 260°W
Pressure: 30.17"   Gusts: NA
Location:  45.31°N, 72.17°W
Report Text: CYSC 290800Z AUTO 26004KT 9SM FEW027 OVC041 M08/M10 A3017 RMK SLP233
Loading
Personal Weather Stations






























Interactive Weather Map New forecast layout! Learn more

10-Day Weather Forecast

Advertisements
Track Severe Weather on mobile